createdAt,value
2018-08-22T20:01:53.898Z,16.60
2018-08-22T20:04:22.842Z,16.67
2018-08-22T20:06:51.260Z,15.53
2018-08-22T20:09:19.744Z,14.40
2018-08-22T20:11:48.202Z,14.37
2018-08-22T20:14:16.761Z,13.97
2018-08-22T20:20:24.049Z,14.33
2018-08-22T20:22:54.628Z,12.63
2018-08-22T20:25:29.730Z,12.43
2018-08-22T20:28:00.442Z,15.00
2018-08-22T20:30:30.199Z,10.97
2018-08-22T20:33:04.273Z,13.07
2018-08-22T20:35:35.288Z,13.90
2018-08-22T20:38:05.316Z,14.50
2018-08-22T20:40:35.099Z,16.30
2018-08-22T20:43:04.321Z,17.97
2018-08-22T20:45:35.391Z,16.70
2018-08-22T20:48:11.022Z,17.70
2018-08-22T20:50:40.889Z,26.23
2018-08-22T20:53:10.825Z,26.80
2018-08-22T20:55:39.336Z,30.93
2018-08-22T20:58:09.480Z,25.50
2018-08-22T21:00:37.936Z,22.83
2018-08-22T21:03:06.639Z,24.87
2018-08-22T21:05:35.017Z,28.80
2018-08-22T21:08:03.558Z,29.70
2018-08-22T21:10:32.654Z,19.37
2018-08-22T21:13:01.319Z,23.20
2018-08-22T21:15:30.127Z,19.77
2018-08-22T21:17:58.688Z,17.47
2018-08-22T21:20:27.504Z,18.80
2018-08-22T21:22:57.168Z,16.93
2018-08-22T21:25:25.554Z,17.93
2018-08-22T21:27:54.526Z,14.50
2018-08-22T21:30:23.381Z,15.57
2018-08-22T21:32:51.945Z,12.37
2018-08-22T21:35:24.469Z,16.70
2018-08-22T21:37:54.635Z,21.27
2018-08-22T21:40:23.183Z,15.17
2018-08-22T21:42:51.748Z,13.77
2018-08-22T21:45:21.019Z,14.13
2018-08-22T21:47:50.304Z,18.50
2018-08-22T21:50:18.929Z,17.50
2018-08-22T21:52:59.186Z,15.73
2018-08-22T21:55:32.922Z,13.93
2018-08-22T21:58:01.551Z,11.73
2018-08-22T22:00:31.164Z,13.23
2018-08-22T22:03:00.209Z,11.97
2018-08-22T22:05:40.091Z,16.60
2018-08-22T22:08:09.531Z,14.33
2018-08-22T22:10:38.087Z,13.77
2018-08-22T22:13:07.124Z,11.63
2018-08-22T22:15:40.906Z,10.77
2018-08-22T22:18:09.604Z,11.27
2018-08-22T22:20:38.176Z,11.93
2018-08-22T22:23:07.009Z,10.77
2018-08-22T22:25:35.442Z,12.27
2018-08-22T22:28:04.026Z,9.00
2018-08-22T22:30:32.663Z,10.40
2018-08-22T22:33:01.816Z,8.73
2018-08-22T22:35:38.902Z,9.07
2018-08-22T22:38:09.330Z,11.53
2018-08-22T22:40:38.202Z,10.90
2018-08-22T22:43:09.851Z,10.63
2018-08-22T22:45:38.342Z,9.67
2018-08-22T22:48:06.955Z,9.87
2018-08-22T22:50:35.415Z,10.70
2018-08-22T22:53:05.572Z,10.47
2018-08-22T22:55:35.348Z,11.03
2018-08-22T22:58:04.137Z,11.53
2018-08-22T23:00:32.526Z,11.40
2018-08-22T23:03:07.249Z,9.87
2018-08-22T23:05:35.878Z,12.57
2018-08-22T23:08:04.285Z,10.53
2018-08-22T23:10:32.762Z,10.47
2018-08-22T23:13:01.171Z,9.90
2018-08-22T23:15:31.057Z,10.73
2018-08-22T23:18:01.519Z,10.17
2018-08-22T23:20:34.950Z,11.77
2018-08-22T23:23:05.342Z,9.50
2018-08-22T23:25:33.745Z,9.90
2018-08-22T23:28:02.832Z,12.67
2018-08-22T23:30:34.685Z,11.03
2018-08-22T23:33:03.523Z,12.40
2018-08-22T23:35:33.247Z,10.57
2018-08-22T23:38:03.188Z,11.37
2018-08-22T23:40:33.709Z,13.63
2018-08-22T23:43:02.246Z,11.07
2018-08-22T23:45:31.605Z,14.40
2018-08-22T23:48:00.078Z,11.87
2018-08-22T23:50:36.460Z,11.60
2018-08-22T23:53:04.907Z,11.03
2018-08-22T23:55:33.523Z,14.73
2018-08-22T23:58:01.949Z,11.63
